createdAt,value
2023-03-24T00:01:57.460Z,8.13
2023-03-24T00:04:25.458Z,8.77
2023-03-24T00:06:54.127Z,9.60
2023-03-24T00:09:21.480Z,8.90
2023-03-24T00:11:48.556Z,9.23
2023-03-24T00:14:15.687Z,8.93
2023-03-24T00:16:43.079Z,8.85
2023-03-24T00:19:13.350Z,8.43
2023-03-24T00:21:42.094Z,8.23
2023-03-24T00:24:11.341Z,8.10
2023-03-24T00:26:40.633Z,7.85
2023-03-24T00:29:11.111Z,8.40
2023-03-24T00:31:40.255Z,8.23
2023-03-24T00:34:09.355Z,7.85
2023-03-24T00:36:37.499Z,8.07
2023-03-24T00:39:06.564Z,7.32
2023-03-24T00:41:34.200Z,7.40
2023-03-24T00:44:06.049Z,8.07
2023-03-24T00:46:34.291Z,7.57
2023-03-24T00:49:05.724Z,7.60
2023-03-24T00:51:39.143Z,7.90
2023-03-24T00:54:09.527Z,7.65
2023-03-24T00:56:40.485Z,7.40
2023-03-24T00:59:10.749Z,6.97
2023-03-24T01:01:41.393Z,7.22
2023-03-24T01:04:10.445Z,7.25
2023-03-24T01:06:39.001Z,7.47
2023-03-24T01:09:07.154Z,7.40
2023-03-24T01:11:38.686Z,7.40
2023-03-24T01:14:06.588Z,7.13
2023-03-24T01:16:33.790Z,7.65
2023-03-24T01:19:01.093Z,7.22
2023-03-24T01:21:28.451Z,7.68
2023-03-24T01:23:55.681Z,7.65
2023-03-24T01:26:22.983Z,7.50
2023-03-24T01:28:50.080Z,7.72
2023-03-24T01:31:17.262Z,7.25
2023-03-24T01:33:44.378Z,7.43
2023-03-24T01:36:11.619Z,7.22
2023-03-24T01:38:38.719Z,7.25
2023-03-24T01:41:07.492Z,7.05
2023-03-24T01:43:35.954Z,7.70
2023-03-24T01:46:22.226Z,8.02
2023-03-24T01:49:03.888Z,7.50
2023-03-24T01:51:38.944Z,7.35
2023-03-24T01:54:15.271Z,7.53
2023-03-24T01:56:51.100Z,7.72
2023-03-24T01:59:23.056Z,7.00
2023-03-24T02:02:14.795Z,7.05
2023-03-24T02:05:01.717Z,7.55
2023-03-24T02:07:52.541Z,7.28
2023-03-24T02:10:22.112Z,7.25
2023-03-24T02:12:49.583Z,7.10
2023-03-24T02:15:19.512Z,7.50
2023-03-24T02:17:54.800Z,7.15
2023-03-24T02:20:55.578Z,7.22
2023-03-24T02:23:25.728Z,7.18
2023-03-24T02:25:56.015Z,8.15
2023-03-24T02:28:34.019Z,7.43
2023-03-24T02:31:36.659Z,7.70
2023-03-24T02:34:32.724Z,7.63
2023-03-24T02:37:27.788Z,7.60
2023-03-24T02:40:08.600Z,7.57
2023-03-24T02:42:43.899Z,8.07
2023-03-24T02:45:25.302Z,7.43
2023-03-24T02:48:33.651Z,8.18
2023-03-24T02:51:19.409Z,7.88
2023-03-24T02:53:55.741Z,7.25
2023-03-24T02:56:52.412Z,7.50
2023-03-24T02:59:41.659Z,7.20
2023-03-24T03:02:32.742Z,7.95
2023-03-24T03:05:14.305Z,7.90
2023-03-24T03:07:44.919Z,7.75
2023-03-24T03:10:25.331Z,8.18
2023-03-24T03:12:57.370Z,7.68
2023-03-24T03:15:42.276Z,7.22
2023-03-24T03:18:16.648Z,7.40
2023-03-24T03:20:50.751Z,7.63
2023-03-24T03:23:24.457Z,7.03
2023-03-24T03:25:57.898Z,7.38
2023-03-24T03:28:29.903Z,7.90
2023-03-24T03:31:01.825Z,7.13
2023-03-24T03:33:54.635Z,6.68
2023-03-24T03:36:49.328Z,6.93
2023-03-24T03:39:27.887Z,6.95
2023-03-24T03:41:56.246Z,6.95
2023-03-24T03:44:24.149Z,7.30
2023-03-24T03:46:51.857Z,7.10
2023-03-24T03:49:27.052Z,7.00
2023-03-24T03:51:55.828Z,7.03
2023-03-24T03:54:26.003Z,6.40
2023-03-24T03:56:54.192Z,7.63
2023-03-24T03:59:38.988Z,8.02
2023-03-24T04:02:38.670Z,7.70
2023-03-24T04:05:28.274Z,8.48
2023-03-24T04:08:37.490Z,7.63
2023-03-24T04:11:34.849Z,7.72
2023-03-24T04:14:22.124Z,8.20
2023-03-24T04:17:31.137Z,7.97
2023-03-24T04:20:17.388Z,8.30
2023-03-24T04:22:50.907Z,8.90
2023-03-24T04:25:41.089Z,7.80
2023-03-24T04:28:43.347Z,7.63
2023-03-24T04:31:27.189Z,7.68
2023-03-24T04:34:03.362Z,7.50
2023-03-24T04:36:45.452Z,7.70
2023-03-24T04:39:31.810Z,7.75
2023-03-24T04:42:04.649Z,7.70
2023-03-24T04:44:33.989Z,7.68
2023-03-24T04:47:31.871Z,7.80
2023-03-24T04:50:32.753Z,7.35
2023-03-24T04:53:05.889Z,8.10
2023-03-24T04:55:36.157Z,7.80
2023-03-24T04:58:04.092Z,7.95
2023-03-24T05:00:32.253Z,8.30
2023-03-24T05:03:00.149Z,8.68
2023-03-24T05:05:28.639Z,7.97
2023-03-24T05:07:57.030Z,8.77
2023-03-24T05:10:24.532Z,8.07
2023-03-24T05:12:55.587Z,8.82
2023-03-24T05:15:48.290Z,8.45
2023-03-24T05:18:28.324Z,8.15
2023-03-24T05:20:57.237Z,8.65
2023-03-24T05:23:25.823Z,9.30
2023-03-24T05:25:54.014Z,8.63
2023-03-24T05:28:23.934Z,8.88
2023-03-24T05:30:53.856Z,9.00
2023-03-24T05:33:53.615Z,9.30
2023-03-24T05:36:23.253Z,9.02
2023-03-24T05:38:55.427Z,8.85
2023-03-24T05:41:26.160Z,9.27
2023-03-24T05:43:53.407Z,8.82
2023-03-24T05:46:21.123Z,9.60
2023-03-24T05:48:51.354Z,8.65
2023-03-24T05:51:20.511Z,8.55
2023-03-24T05:53:56.490Z,9.32
2023-03-24T05:56:43.432Z,8.98
2023-03-24T05:59:25.972Z,9.50
2023-03-24T06:01:53.784Z,10.35
2023-03-24T06:04:30.605Z,8.90
2023-03-24T06:07:04.478Z,9.43
2023-03-24T06:09:36.584Z,9.77
2023-03-24T06:12:05.905Z,9.70
2023-03-24T06:14:36.379Z,10.00
2023-03-24T06:17:14.684Z,9.48
2023-03-24T06:19:49.777Z,10.00
2023-03-24T06:22:47.817Z,10.18
2023-03-24T06:25:21.661Z,10.98
2023-03-24T06:28:04.343Z,10.25
2023-03-24T06:30:33.446Z,10.13
2023-03-24T06:33:01.237Z,9.90
2023-03-24T06:35:28.729Z,10.73
2023-03-24T06:38:09.064Z,10.70
2023-03-24T06:40:37.938Z,11.15
2023-03-24T06:43:06.422Z,11.25
2023-03-24T06:45:39.601Z,11.05
2023-03-24T06:48:10.456Z,11.60
2023-03-24T06:53:09.321Z,12.07
2023-03-24T06:55:36.929Z,11.55
2023-03-24T06:58:05.449Z,10.95
2023-03-24T07:00:52.052Z,11.70
2023-03-24T07:03:33.263Z,10.90
2023-03-24T07:06:23.656Z,10.50
2023-03-24T07:08:54.572Z,11.07
2023-03-24T07:11:24.692Z,10.32
2023-03-24T07:13:54.580Z,10.50
2023-03-24T07:16:24.774Z,10.50
2023-03-24T07:19:11.040Z,10.40
2023-03-24T07:21:40.996Z,9.98
2023-03-24T07:24:08.307Z,10.63
2023-03-24T07:26:50.421Z,9.70
2023-03-24T07:29:21.264Z,9.05
2023-03-24T07:32:09.217Z,9.65
2023-03-24T07:34:37.701Z,9.80
2023-03-24T07:37:04.910Z,8.80
2023-03-24T07:39:32.003Z,8.80
2023-03-24T07:41:59.260Z,9.05
2023-03-24T07:44:40.427Z,9.52
2023-03-24T07:47:07.652Z,9.63
2023-03-24T07:49:34.932Z,9.27
2023-03-24T07:52:06.725Z,9.40
2023-03-24T07:54:54.043Z,9.85
2023-03-24T07:57:48.422Z,9.50
2023-03-24T08:00:25.062Z,9.50
2023-03-24T08:03:18.485Z,9.52
2023-03-24T08:06:05.876Z,9.32
2023-03-24T08:08:39.123Z,9.35
2023-03-24T08:11:06.623Z,8.55
2023-03-24T08:13:34.064Z,8.95
2023-03-24T08:16:01.950Z,8.80
2023-03-24T08:18:29.356Z,9.45
2023-03-24T08:20:58.759Z,8.98
2023-03-24T08:23:26.162Z,8.80
2023-03-24T08:25:53.472Z,8.50
2023-03-24T08:28:20.864Z,8.00
2023-03-24T08:30:48.413Z,8.60
2023-03-24T08:33:16.785Z,7.85
2023-03-24T08:35:46.282Z,7.90
2023-03-24T08:38:18.753Z,7.70
2023-03-24T08:40:46.543Z,8.18
2023-03-24T08:43:15.641Z,7.60
2023-03-24T08:45:42.914Z,7.13
2023-03-24T08:48:10.827Z,7.35
2023-03-24T08:50:42.538Z,7.65
2023-03-24T08:53:13.603Z,7.70
2023-03-24T08:55:43.247Z,7.20
2023-03-24T08:58:17.027Z,6.80
2023-03-24T09:00:45.484Z,7.35
2023-03-24T09:03:22.528Z,7.22
2023-03-24T09:05:51.137Z,7.32
2023-03-24T09:08:22.883Z,6.70
2023-03-24T09:10:51.494Z,7.38
2023-03-24T09:13:20.121Z,7.30
2023-03-24T09:15:52.893Z,6.90
2023-03-24T09:18:22.004Z,6.90
2023-03-24T09:20:49.895Z,7.72
2023-03-24T09:23:18.071Z,7.55
2023-03-24T09:25:45.627Z,6.97
2023-03-24T09:28:14.739Z,6.55
2023-03-24T09:30:46.963Z,6.38
2023-03-24T09:33:15.251Z,6.72
2023-03-24T09:35:43.041Z,6.20
2023-03-24T09:38:12.472Z,7.05
2023-03-24T09:40:42.713Z,7.30
2023-03-24T09:43:44.085Z,6.75
2023-03-24T09:46:15.573Z,6.85
2023-03-24T09:48:50.211Z,6.90
2023-03-24T09:51:40.948Z,6.53
2023-03-24T09:54:08.238Z,6.85
2023-03-24T09:56:38.509Z,6.75
2023-03-24T09:59:34.259Z,7.13
2023-03-24T10:02:02.181Z,7.05
2023-03-24T10:04:32.282Z,7.13
2023-03-24T10:07:14.702Z,6.82
2023-03-24T10:09:44.759Z,6.75
2023-03-24T10:12:21.407Z,6.82
2023-03-24T10:15:27.143Z,7.10
2023-03-24T10:18:22.400Z,6.60
2023-03-24T10:20:49.509Z,7.13
2023-03-24T10:23:37.892Z,6.25
2023-03-24T10:26:23.947Z,6.65
2023-03-24T10:29:20.324Z,6.55
2023-03-24T10:31:52.256Z,6.97
2023-03-24T10:34:25.958Z,6.72
2023-03-24T10:36:54.162Z,6.40
2023-03-24T10:39:26.267Z,6.47
2023-03-24T10:42:01.530Z,6.90
2023-03-24T10:44:29.712Z,6.35
2023-03-24T10:47:02.703Z,6.03
2023-03-24T10:49:31.411Z,6.38
2023-03-24T10:52:06.368Z,5.88
2023-03-24T10:54:34.012Z,5.38
2023-03-24T10:57:05.231Z,5.70
2023-03-24T11:00:21.748Z,5.75
2023-03-24T11:03:17.420Z,5.28
2023-03-24T11:05:46.476Z,5.63
2023-03-24T11:08:21.787Z,9.95
2023-03-24T11:10:49.764Z,5.70
2023-03-24T11:13:31.465Z,5.13
2023-03-24T11:16:17.600Z,5.43
2023-03-24T11:19:05.494Z,5.47
2023-03-24T11:21:36.993Z,5.13
2023-03-24T11:24:12.201Z,5.15
2023-03-24T11:26:44.510Z,4.72
2023-03-24T11:29:24.392Z,4.63
2023-03-24T11:32:03.469Z,4.70
2023-03-24T11:34:46.780Z,5.50
2023-03-24T11:37:26.719Z,5.57
2023-03-24T11:40:13.207Z,5.65
2023-03-24T11:42:53.456Z,5.18
2023-03-24T11:45:28.132Z,4.15
2023-03-24T11:47:59.564Z,3.85
2023-03-24T11:50:32.980Z,4.15
2023-03-24T11:53:23.962Z,4.40
2023-03-24T11:56:06.597Z,4.22
2023-03-24T11:59:11.630Z,4.03
2023-03-24T12:02:03.458Z,3.63
2023-03-24T12:04:50.942Z,3.60
2023-03-24T12:07:42.171Z,3.65
2023-03-24T12:10:36.711Z,3.78
2023-03-24T12:13:25.973Z,3.60
2023-03-24T12:16:30.968Z,3.72
2023-03-24T12:19:13.918Z,3.47
2023-03-24T12:22:14.532Z,4.72
2023-03-24T12:24:56.434Z,4.10
2023-03-24T12:27:46.915Z,4.10
2023-03-24T12:30:29.611Z,3.80
2023-03-24T12:33:23.675Z,3.85
2023-03-24T12:35:53.539Z,3.97
2023-03-24T12:38:23.812Z,3.80
2023-03-24T12:41:09.932Z,3.90
2023-03-24T12:43:45.505Z,3.65
2023-03-24T12:46:40.571Z,3.90
2023-03-24T12:49:23.772Z,3.72
2023-03-24T12:52:09.660Z,3.47
2023-03-24T12:55:04.626Z,3.88
2023-03-24T12:57:39.694Z,3.88
2023-03-24T13:00:20.290Z,3.88
2023-03-24T13:03:01.519Z,3.88
2023-03-24T13:05:34.246Z,3.95
2023-03-24T13:08:13.821Z,3.92
2023-03-24T13:10:42.725Z,3.67
2023-03-24T13:13:23.893Z,4.00
2023-03-24T13:15:56.529Z,3.97
2023-03-24T13:18:30.378Z,4.38
2023-03-24T13:21:11.423Z,4.15
2023-03-24T13:23:47.341Z,4.22
2023-03-24T13:26:39.046Z,4.10
2023-03-24T13:29:45.585Z,4.00
2023-03-24T13:32:22.488Z,3.50
2023-03-24T13:35:27.492Z,3.80
2023-03-24T13:38:20.091Z,3.78
2023-03-24T13:40:52.392Z,3.70
2023-03-24T13:43:26.457Z,3.78
2023-03-24T13:45:59.920Z,3.75
2023-03-24T13:48:41.883Z,4.03
2023-03-24T13:51:35.708Z,4.00
2023-03-24T13:54:13.748Z,3.83
2023-03-24T13:57:01.677Z,3.70
2023-03-24T13:59:33.126Z,3.83
2023-03-24T14:02:43.155Z,4.50
2023-03-24T14:05:30.318Z,5.00
2023-03-24T14:08:06.510Z,4.20
2023-03-24T14:10:59.857Z,4.10
2023-03-24T14:13:49.945Z,3.92
2023-03-24T14:16:45.185Z,4.15
2023-03-24T14:19:25.521Z,4.05
2023-03-24T14:22:14.596Z,3.95
2023-03-24T14:24:44.677Z,3.78
2023-03-24T14:27:29.358Z,4.10
2023-03-24T14:30:02.234Z,3.63
2023-03-24T14:32:30.522Z,3.85
2023-03-24T14:34:59.823Z,3.67
2023-03-24T14:37:29.069Z,4.00
2023-03-24T14:39:58.436Z,3.83
2023-03-24T14:42:34.313Z,4.20
2023-03-24T14:45:07.833Z,3.70
2023-03-24T14:47:42.012Z,3.72
2023-03-24T14:50:22.405Z,3.50
2023-03-24T14:52:59.219Z,3.72
2023-03-24T14:55:27.612Z,3.70
2023-03-24T14:58:23.832Z,3.55
2023-03-24T15:01:07.178Z,3.63
2023-03-24T15:03:50.380Z,3.85
2023-03-24T15:06:23.427Z,3.90
2023-03-24T15:08:51.447Z,4.75
2023-03-24T15:11:37.508Z,5.55
2023-03-24T15:14:06.488Z,4.10
2023-03-24T15:16:36.455Z,4.95
2023-03-24T15:19:24.977Z,4.47
2023-03-24T15:21:57.974Z,4.70
2023-03-24T15:24:35.199Z,5.03
2023-03-24T15:27:08.859Z,5.40
2023-03-24T15:29:38.716Z,5.30
2023-03-24T15:32:06.503Z,5.80
2023-03-24T15:34:46.382Z,6.00
2023-03-24T15:37:38.595Z,5.57
2023-03-24T15:40:15.716Z,5.30
2023-03-24T15:42:45.002Z,5.50
2023-03-24T15:45:28.208Z,5.70
2023-03-24T15:47:56.752Z,6.50
2023-03-24T15:50:37.734Z,5.75
2023-03-24T15:53:20.283Z,5.80
2023-03-24T15:55:47.492Z,5.95
2023-03-24T15:58:32.215Z,5.80
2023-03-24T16:01:03.010Z,6.30
2023-03-24T16:03:32.453Z,6.22
2023-03-24T16:05:59.852Z,6.32
2023-03-24T16:08:32.077Z,5.88
2023-03-24T16:11:12.100Z,6.05
2023-03-24T16:13:44.872Z,5.90
2023-03-24T16:16:15.258Z,6.35
2023-03-24T16:18:47.139Z,6.35
2023-03-24T16:21:18.471Z,5.97
2023-03-24T16:23:46.637Z,6.00
2023-03-24T16:26:23.023Z,5.93
2023-03-24T16:28:51.412Z,5.85
2023-03-24T16:31:27.826Z,5.78
2023-03-24T16:33:57.263Z,5.75
2023-03-24T16:36:26.810Z,5.60
2023-03-24T16:38:58.729Z,6.00
2023-03-24T16:41:26.087Z,5.28
2023-03-24T16:43:54.087Z,6.03
2023-03-24T16:46:31.392Z,5.72
2023-03-24T16:48:59.312Z,6.30
2023-03-24T16:51:27.257Z,6.38
2023-03-24T16:53:54.384Z,6.70
2023-03-24T16:56:22.888Z,5.43
2023-03-24T16:58:52.383Z,4.38
2023-03-24T17:01:27.756Z,4.40
2023-03-24T17:03:56.554Z,5.00
2023-03-24T17:06:24.548Z,4.35
2023-03-24T17:08:52.111Z,4.50
2023-03-24T17:11:35.620Z,4.25
2023-03-24T17:14:04.669Z,5.20
2023-03-24T17:16:36.712Z,4.53
2023-03-24T17:19:07.554Z,4.57
2023-03-24T17:21:39.214Z,4.70
2023-03-24T17:24:10.955Z,4.40
2023-03-24T17:26:39.627Z,4.15
2023-03-24T17:29:07.093Z,3.97
2023-03-24T17:31:34.212Z,3.88
2023-03-24T17:34:08.539Z,3.90
2023-03-24T17:36:49.927Z,3.90
2023-03-24T17:39:21.598Z,3.72
2023-03-24T17:41:49.002Z,4.10
2023-03-24T17:44:16.541Z,4.18
2023-03-24T17:46:43.818Z,4.70
2023-03-24T17:49:10.994Z,4.50
2023-03-24T17:51:38.326Z,4.50
2023-03-24T17:54:05.691Z,4.85
2023-03-24T17:56:33.153Z,4.95
2023-03-24T17:59:00.226Z,4.35
2023-03-24T18:01:29.770Z,4.93
2023-03-24T18:03:58.066Z,5.40
2023-03-24T18:06:27.412Z,5.70
2023-03-24T18:08:54.842Z,5.20
2023-03-24T18:11:21.853Z,5.60
2023-03-24T18:13:49.207Z,5.50
2023-03-24T18:16:21.765Z,5.50
2023-03-24T18:18:50.046Z,5.65
2023-03-24T18:21:17.677Z,5.70
2023-03-24T18:23:46.874Z,5.78
2023-03-24T18:26:15.443Z,5.90
2023-03-24T18:28:42.971Z,6.05
2023-03-24T18:31:18.848Z,6.13
2023-03-24T18:33:49.887Z,6.20
2023-03-24T18:36:26.458Z,6.57
2023-03-24T18:38:59.542Z,7.05
2023-03-24T18:41:28.455Z,6.50
2023-03-24T18:43:56.542Z,6.65
2023-03-24T18:46:24.129Z,6.80
2023-03-24T18:48:53.264Z,7.70
2023-03-24T18:51:22.557Z,8.10
2023-03-24T18:53:50.555Z,9.65
2023-03-24T18:56:18.849Z,11.40
2023-03-24T18:58:46.244Z,11.40
2023-03-24T19:01:16.623Z,10.48
2023-03-24T19:03:44.776Z,10.10
2023-03-24T19:06:14.250Z,9.77
2023-03-24T19:08:45.323Z,10.13
2023-03-24T19:11:14.492Z,9.98
2023-03-24T19:13:42.124Z,10.48
2023-03-24T19:16:10.619Z,10.55
2023-03-24T19:18:39.489Z,10.07
2023-03-24T19:21:07.358Z,9.60
2023-03-24T19:23:35.414Z,9.10
2023-03-24T19:26:03.615Z,8.32
2023-03-24T19:28:32.566Z,8.52
2023-03-24T19:31:05.125Z,8.30
2023-03-24T19:33:32.296Z,7.70
2023-03-24T19:35:59.563Z,7.75
2023-03-24T19:38:26.770Z,7.82
2023-03-24T19:40:54.386Z,9.10
2023-03-24T19:43:22.856Z,8.00
2023-03-24T19:45:54.613Z,8.00
2023-03-24T19:48:22.895Z,7.93
2023-03-24T19:50:51.756Z,7.43
2023-03-24T19:53:19.598Z,7.15
2023-03-24T19:55:47.083Z,6.63
2023-03-24T19:58:14.812Z,6.95
2023-03-24T20:00:42.002Z,7.43
2023-03-24T20:03:09.356Z,7.00
2023-03-24T20:05:37.397Z,7.07
2023-03-24T20:08:04.663Z,7.85
2023-03-24T20:10:31.739Z,7.60
2023-03-24T20:12:58.872Z,7.28
2023-03-24T20:15:26.190Z,7.60
2023-03-24T20:17:53.620Z,7.97
2023-03-24T20:20:20.921Z,8.07
2023-03-24T20:22:49.066Z,8.52
2023-03-24T20:25:17.894Z,8.48
2023-03-24T20:27:47.082Z,8.80
2023-03-24T20:30:17.061Z,8.68
2023-03-24T20:32:44.651Z,9.00
2023-03-24T20:35:12.518Z,9.70
2023-03-24T20:37:39.732Z,8.15
2023-03-24T20:40:09.705Z,8.98
2023-03-24T20:42:38.030Z,9.20
2023-03-24T20:45:06.960Z,9.10
2023-03-24T20:47:34.990Z,9.18
2023-03-24T20:50:02.614Z,9.00
2023-03-24T20:52:29.954Z,8.95
2023-03-24T20:54:57.003Z,9.45
2023-03-24T20:57:26.391Z,9.20
2023-03-24T20:59:53.732Z,9.23
2023-03-24T21:02:20.984Z,9.27
2023-03-24T21:04:48.200Z,10.20
2023-03-24T21:07:15.642Z,11.30
2023-03-24T21:09:42.786Z,11.15
2023-03-24T21:12:09.935Z,11.00
2023-03-24T21:14:37.705Z,11.52
2023-03-24T21:17:05.939Z,11.32
2023-03-24T21:19:33.320Z,11.68
2023-03-24T21:22:03.170Z,12.20
2023-03-24T21:24:30.703Z,12.02
2023-03-24T21:26:57.971Z,11.65
2023-03-24T21:29:26.743Z,11.80
2023-03-24T21:31:54.323Z,12.63
2023-03-24T21:34:21.431Z,11.75
2023-03-24T21:36:49.710Z,12.75
2023-03-24T21:39:17.335Z,12.13
2023-03-24T21:41:45.868Z,11.43
2023-03-24T21:44:13.070Z,12.10
2023-03-24T21:46:40.370Z,13.13
2023-03-24T21:49:11.213Z,11.52
2023-03-24T21:51:38.563Z,13.02
2023-03-24T21:54:07.551Z,12.15
2023-03-24T21:56:36.062Z,13.32
2023-03-24T21:59:04.771Z,12.40
2023-03-24T22:01:34.189Z,12.15
2023-03-24T22:04:01.599Z,12.10
2023-03-24T22:06:29.389Z,11.48
2023-03-24T22:08:58.554Z,10.73
2023-03-24T22:11:26.375Z,10.15
2023-03-24T22:13:53.917Z,10.00
2023-03-24T22:16:21.114Z,9.18
2023-03-24T22:18:48.813Z,9.10
2023-03-24T22:21:16.079Z,8.95
2023-03-24T22:23:43.315Z,9.60
2023-03-24T22:26:13.670Z,9.57
2023-03-24T22:28:42.426Z,8.80
2023-03-24T22:31:11.824Z,9.68
2023-03-24T22:33:39.438Z,9.10
2023-03-24T22:36:07.805Z,9.35
2023-03-24T22:38:35.558Z,8.68
2023-03-24T22:41:05.931Z,8.95
2023-03-24T22:43:35.445Z,9.27
2023-03-24T22:46:03.783Z,8.70
2023-03-24T22:48:31.036Z,8.95
2023-03-24T22:50:58.043Z,9.18
2023-03-24T22:53:25.176Z,9.18
2023-03-24T22:55:52.548Z,10.23
2023-03-24T22:58:20.095Z,9.50
2023-03-24T23:00:49.611Z,9.15
2023-03-24T23:03:17.037Z,9.30
2023-03-24T23:05:47.172Z,8.90
2023-03-24T23:08:15.688Z,9.20
2023-03-24T23:10:44.961Z,9.77
2023-03-24T23:13:12.509Z,9.00
2023-03-24T23:15:42.996Z,8.63
2023-03-24T23:18:10.903Z,8.27
2023-03-24T23:20:38.226Z,8.18
2023-03-24T23:23:07.076Z,8.38
2023-03-24T23:25:43.422Z,8.82
2023-03-24T23:28:11.752Z,9.50
2023-03-24T23:30:40.183Z,10.00
2023-03-24T23:33:07.946Z,12.10
2023-03-24T23:35:37.347Z,9.07
2023-03-24T23:38:06.797Z,10.55
2023-03-24T23:40:33.988Z,11.82
2023-03-24T23:43:02.453Z,11.50
2023-03-24T23:45:29.591Z,10.57
2023-03-24T23:47:56.881Z,10.93
2023-03-24T23:50:24.027Z,10.82
2023-03-24T23:52:51.240Z,11.13
2023-03-24T23:55:18.618Z,9.50
2023-03-24T23:57:46.744Z,9.07
